Time;durP1;ratioP1;P1;durP2;ratioP2;P2;SDS_P1;SDS_P2;PMS_P1;PMS_P2;Temp;Humidity;BMP_temperature;BMP_pressure;BME280_temperature;BME280_humidity;BME280_pressure;Samples;Min_cycle;Max_cycle;Signal;HPM_P1;HPM_P2
2022/02/19 00:01:07;;;;;;;12.80;2.43;;;5.50;99.90;;;;;;5017755;28;20205;-66
2022/02/19 00:04:14;;;;;;;10.37;2.50;;;5.50;99.90;;;;;;5023195;28;20193;-66
2022/02/19 00:07:20;;;;;;;13.53;2.77;;;5.50;99.90;;;;;;5034231;28;20270;-67
2022/02/19 00:09:49;;;;;;;10.27;2.60;;;5.50;99.90;;;;;;5027716;28;20213;-66
2022/02/19 00:12:17;;;;;;;7.60;2.30;;;5.50;99.90;;;;;;5025955;28;20301;-67
2022/02/19 00:14:45;;;;;;;11.30;2.40;;;5.40;99.90;;;;;;5031143;28;20195;-66
2022/02/19 00:17:14;;;;;;;10.83;2.50;;;5.30;99.90;;;;;;5026117;28;20194;-67
2022/02/19 00:19:44;;;;;;;10.37;2.43;;;5.30;99.90;;;;;;5048078;28;20299;-66
2022/02/19 00:22:12;;;;;;;10.63;2.47;;;5.30;99.90;;;;;;5011361;28;20234;-66
2022/02/19 00:24:41;;;;;;;9.03;2.57;;;5.30;99.90;;;;;;5024106;28;20217;-66
2022/02/19 00:27:10;;;;;;;7.13;2.50;;;5.30;99.90;;;;;;5025918;28;20194;-66
2022/02/19 00:29:38;;;;;;;15.03;2.67;;;5.30;99.90;;;;;;5039313;28;20326;-66
2022/02/19 00:32:08;;;;;;;5.43;2.30;;;5.30;99.90;;;;;;5022434;28;20206;-66
2022/02/19 00:34:36;;;;;;;8.63;2.43;;;5.30;99.90;;;;;;5027794;28;20840;-66
2022/02/19 00:37:06;;;;;;;15.57;2.83;;;5.30;99.90;;;;;;5033895;28;20208;-66
2022/02/19 00:39:35;;;;;;;5.70;2.10;;;5.30;99.90;;;;;;5034987;28;20207;-66
2022/02/19 00:42:05;;;;;;;10.63;2.43;;;5.40;99.90;;;;;;5030616;28;20656;-66
2022/02/19 00:44:34;;;;;;;7.40;2.30;;;5.40;99.90;;;;;;5028822;28;20614;-66
2022/02/19 00:47:03;;;;;;;10.43;2.33;;;5.40;99.90;;;;;;5035877;28;20273;-66
2022/02/19 00:49:31;;;;;;;5.73;2.03;;;5.50;99.90;;;;;;5029229;28;20659;-66
2022/02/19 00:51:59;;;;;;;10.10;2.30;;;5.50;99.90;;;;;;5015715;28;20213;-65
2022/02/19 00:54:29;;;;;;;7.00;2.20;;;5.40;99.90;;;;;;5030766;28;20247;-68
2022/02/19 00:56:58;;;;;;;10.00;2.30;;;5.50;99.90;;;;;;5043602;28;20185;-66
2022/02/19 00:59:26;;;;;;;13.23;2.60;;;5.50;99.90;;;;;;5035624;28;20281;-66
2022/02/19 01:01:55;;;;;;;9.47;2.40;;;5.40;99.90;;;;;;5030385;28;20272;-66
2022/02/19 01:04:23;;;;;;;11.90;2.00;;;5.30;99.90;;;;;;5038703;28;20285;-66
2022/02/19 01:06:51;;;;;;;10.90;2.30;;;5.20;99.90;;;;;;5036656;28;20655;-66
2022/02/19 01:09:21;;;;;;;6.30;2.00;;;5.20;99.90;;;;;;5035441;28;20199;-66
2022/02/19 01:11:50;;;;;;;9.83;2.30;;;5.20;99.90;;;;;;5041699;28;20291;-67
2022/02/19 01:14:18;;;;;;;8.83;2.00;;;5.20;99.90;;;;;;5035043;28;20244;-66
2022/02/19 01:16:47;;;;;;;7.87;2.07;;;5.10;99.90;;;;;;5035312;28;20731;-66
2022/02/19 01:19:15;;;;;;;9.10;2.00;;;5.10;99.90;;;;;;5027203;28;20558;-67
2022/02/19 01:21:43;;;;;;;8.60;2.33;;;5.20;99.90;;;;;;5021304;28;20199;-66
2022/02/19 01:24:12;;;;;;;11.97;2.27;;;5.10;99.90;;;;;;5039067;28;20220;-66
2022/02/19 01:26:40;;;;;;;11.87;2.50;;;5.10;99.90;;;;;;5027247;28;20676;-67
2022/02/19 01:29:10;;;;;;;8.37;2.77;;;5.10;99.90;;;;;;5038589;28;20283;-67
2022/02/19 01:31:39;;;;;;;4.93;2.07;;;5.10;99.90;;;;;;5028362;28;20304;-66
2022/02/19 01:34:07;;;;;;;10.37;2.30;;;5.10;99.90;;;;;;5034588;28;20208;-66
2022/02/19 01:36:37;;;;;;;6.10;2.57;;;5.00;99.90;;;;;;5020116;28;20657;-66
2022/02/19 01:39:06;;;;;;;9.70;2.33;;;4.90;99.90;;;;;;5030032;28;20227;-66
2022/02/19 01:41:34;;;;;;;7.33;2.17;;;4.90;99.90;;;;;;5027361;28;20575;-66
2022/02/19 01:44:06;;;;;;;8.97;2.30;;;4.80;99.90;;;;;;5037802;28;20240;-66
2022/02/19 01:46:37;;;;;;;7.80;2.40;;;4.80;99.90;;;;;;5005243;28;20213;-66
2022/02/19 01:49:07;;;;;;;6.93;1.97;;;4.80;99.90;;;;;;5045528;28;20205;-66
2022/02/19 01:51:36;;;;;;;9.87;2.20;;;4.80;99.90;;;;;;5026263;28;20555;-66
2022/02/19 01:54:06;;;;;;;5.83;2.20;;;4.70;99.90;;;;;;5038591;28;20607;-67
2022/02/19 01:56:35;;;;;;;9.00;2.20;;;4.60;99.90;;;;;;5014195;28;20285;-66
2022/02/19 01:59:06;;;;;;;7.67;2.40;;;4.60;99.90;;;;;;5033648;28;20197;-66
2022/02/19 02:01:36;;;;;;;6.30;2.27;;;4.50;99.90;;;;;;5045649;28;20190;-66
2022/02/19 02:04:05;;;;;;;6.47;2.00;;;4.50;99.90;;;;;;5034709;28;20205;-66
2022/02/19 02:06:33;;;;;;;4.97;2.13;;;4.50;99.90;;;;;;5030218;28;20217;-65
2022/02/19 02:09:01;;;;;;;11.50;2.20;;;4.50;99.90;;;;;;5039139;28;20272;-65
2022/02/19 02:11:30;;;;;;;8.53;2.50;;;4.40;99.90;;;;;;5038777;28;20204;-65
2022/02/19 02:13:58;;;;;;;3.60;2.10;;;4.30;99.90;;;;;;5024731;28;20715;-65
2022/02/19 02:16:36;;;;;;;3.67;2.27;;;4.30;99.90;;;;;;5038313;28;20203;-68
2022/02/19 02:19:04;;;;;;;6.70;1.97;;;4.20;99.90;;;;;;5029746;28;20202;-68
2022/02/19 02:21:34;;;;;;;7.60;2.07;;;4.20;99.90;;;;;;5027948;28;21049;-68
2022/02/19 02:24:03;;;;;;;8.70;2.33;;;4.30;99.90;;;;;;5033116;28;20201;-67
2022/02/19 02:26:32;;;;;;;6.37;2.40;;;4.30;99.90;;;;;;5033043;28;20614;-67
2022/02/19 02:29:00;;;;;;;7.33;1.93;;;4.20;99.90;;;;;;5034050;28;20186;-67
2022/02/19 02:31:29;;;;;;;9.83;2.57;;;4.20;99.90;;;;;;5031072;28;20240;-67
2022/02/19 02:33:58;;;;;;;5.07;2.40;;;4.20;99.90;;;;;;5036519;28;20840;-67
2022/02/19 02:36:27;;;;;;;8.30;2.30;;;4.20;99.90;;;;;;5032935;28;20205;-67
2022/02/19 02:38:58;;;;;;;7.77;2.43;;;4.20;99.90;;;;;;5032844;28;20198;-66
2022/02/19 02:41:27;;;;;;;5.97;2.10;;;4.10;99.90;;;;;;5031410;28;20201;-67
2022/02/19 02:43:56;;;;;;;7.37;2.50;;;4.10;99.90;;;;;;5025452;28;20217;-67
2022/02/19 02:46:24;;;;;;;15.47;2.30;;;4.10;99.90;;;;;;5034975;28;20273;-67
2022/02/19 02:48:52;;;;;;;7.90;2.00;;;4.10;99.90;;;;;;5025283;28;20298;-67
2022/02/19 02:51:21;;;;;;;16.90;2.40;;;4.00;99.90;;;;;;5024864;28;20222;-67
2022/02/19 02:53:50;;;;;;;9.40;2.00;;;4.00;99.90;;;;;;5024449;28;20285;-67
2022/02/19 02:56:19;;;;;;;6.17;2.43;;;4.00;99.90;;;;;;5024851;28;20216;-67
2022/02/19 02:58:48;;;;;;;9.70;2.00;;;4.00;99.90;;;;;;5027799;28;20659;-67
2022/02/19 03:01:16;;;;;;;8.20;2.40;;;4.10;99.90;;;;;;5037762;28;20228;-67
2022/02/19 03:03:44;;;;;;;6.87;2.43;;;4.10;99.90;;;;;;5033997;28;20251;-66
2022/02/19 03:06:13;;;;;;;5.40;2.00;;;4.10;99.90;;;;;;5027970;28;20202;-66
2022/02/19 03:08:41;;;;;;;10.87;2.60;;;4.10;99.90;;;;;;5019571;28;20391;-66
2022/02/19 03:11:09;;;;;;;4.07;2.37;;;4.00;99.90;;;;;;5022488;28;20276;-67
2022/02/19 03:13:39;;;;;;;12.90;2.50;;;4.00;99.90;;;;;;5035946;28;20231;-67
2022/02/19 03:16:08;;;;;;;7.13;2.33;;;4.00;99.90;;;;;;5024736;28;20208;-66
2022/02/19 03:18:36;;;;;;;6.80;2.23;;;4.00;99.90;;;;;;5025023;28;20272;-67
2022/02/19 03:21:04;;;;;;;4.57;2.13;;;4.00;99.90;;;;;;5034086;28;20283;-66
2022/02/19 03:23:33;;;;;;;7.90;2.30;;;3.90;99.90;;;;;;5029297;28;20327;-67
2022/02/19 03:26:01;;;;;;;9.73;2.30;;;3.90;99.90;;;;;;5037569;28;20280;-66
2022/02/19 03:28:30;;;;;;;9.00;2.33;;;3.90;99.90;;;;;;5028461;28;20228;-67
2022/02/19 03:30:59;;;;;;;6.37;2.30;;;3.90;99.90;;;;;;5036826;28;20224;-67
2022/02/19 03:33:28;;;;;;;10.30;2.80;;;3.90;99.90;;;;;;5023644;28;20285;-67
2022/02/19 03:35:56;;;;;;;11.87;2.83;;;3.90;99.90;;;;;;5025633;28;20816;-66
2022/02/19 03:38:24;;;;;;;9.13;2.87;;;3.90;99.90;;;;;;5025053;28;20225;-67
2022/02/19 03:40:58;;;;;;;10.40;3.00;;;3.90;99.90;;;;;;5027681;28;20201;-67
2022/02/19 03:43:26;;;;;;;13.70;2.67;;;3.90;99.90;;;;;;5024343;28;20362;-67
2022/02/19 03:45:54;;;;;;;9.67;2.67;;;3.80;99.90;;;;;;5024063;28;20292;-67
2022/02/19 03:48:24;;;;;;;5.63;2.20;;;3.80;99.90;;;;;;5035134;28;20214;-67
2022/02/19 03:50:53;;;;;;;8.10;2.57;;;3.80;99.90;;;;;;5029761;28;20211;-67
2022/02/19 03:53:21;;;;;;;14.33;2.53;;;3.80;99.90;;;;;;5027554;28;20213;-67
2022/02/19 03:55:49;;;;;;;9.17;3.13;;;3.70;99.90;;;;;;5030504;28;20750;-67
2022/02/19 03:58:18;;;;;;;7.93;2.47;;;3.80;99.90;;;;;;5026831;28;20224;-66
2022/02/19 04:00:46;;;;;;;8.97;2.40;;;3.70;99.90;;;;;;5024936;28;20285;-66
2022/02/19 04:03:15;;;;;;;11.33;2.30;;;3.70;99.90;;;;;;5019057;28;20194;-67
2022/02/19 04:05:46;;;;;;;8.73;2.77;;;3.70;99.90;;;;;;5027719;28;20810;-67
2022/02/19 04:08:14;;;;;;;11.90;2.23;;;3.70;99.90;;;;;;5028360;28;20645;-67
2022/02/19 04:10:43;;;;;;;10.33;2.30;;;3.60;99.90;;;;;;5036650;28;20205;-67
2022/02/19 04:13:12;;;;;;;8.10;2.07;;;3.70;99.90;;;;;;5024705;28;20245;-67
2022/02/19 04:15:40;;;;;;;10.17;2.80;;;3.60;99.90;;;;;;5035229;28;20200;-67
2022/02/19 04:18:09;;;;;;;9.13;2.70;;;3.60;99.90;;;;;;5035416;28;20232;-67
2022/02/19 04:20:37;;;;;;;10.83;2.60;;;3.60;99.90;;;;;;5031858;28;20189;-67
2022/02/19 04:23:07;;;;;;;11.90;2.60;;;3.70;99.90;;;;;;5034502;28;20201;-67
2022/02/19 04:25:36;;;;;;;10.13;2.27;;;3.60;99.90;;;;;;5039490;28;20288;-67
2022/02/19 04:28:06;;;;;;;10.30;2.40;;;3.60;99.90;;;;;;5033768;28;20204;-66
2022/02/19 04:30:36;;;;;;;12.10;2.50;;;3.60;99.90;;;;;;5030831;28;20196;-66
2022/02/19 04:33:05;;;;;;;7.90;2.27;;;3.60;99.90;;;;;;5033034;28;20292;-67
2022/02/19 04:35:35;;;;;;;11.83;2.87;;;3.60;99.90;;;;;;5038506;28;20266;-67
2022/02/19 04:38:03;;;;;;;14.40;2.70;;;3.60;99.90;;;;;;5018621;28;20304;-67
2022/02/19 04:40:33;;;;;;;15.83;3.10;;;3.70;99.90;;;;;;5032417;28;20197;-66
2022/02/19 04:43:01;;;;;;;15.63;2.73;;;3.70;99.90;;;;;;5040150;28;20221;-66
2022/02/19 04:45:30;;;;;;;10.00;3.13;;;3.70;99.90;;;;;;5035709;28;20276;-67
2022/02/19 04:47:58;;;;;;;9.03;2.70;;;3.70;99.90;;;;;;5038689;28;20272;-66
2022/02/19 04:50:26;;;;;;;18.30;2.80;;;3.70;99.90;;;;;;5032692;28;20192;-66
2022/02/19 04:52:55;;;;;;;12.00;2.70;;;3.70;99.90;;;;;;5039823;28;20211;-66
2022/02/19 04:55:24;;;;;;;16.37;2.97;;;3.70;99.90;;;;;;5032652;28;20229;-67
2022/02/19 04:57:54;;;;;;;10.13;2.60;;;3.70;99.90;;;;;;5033303;28;20227;-66
2022/02/19 05:00:22;;;;;;;16.23;3.30;;;3.60;99.90;;;;;;5011043;28;20601;-67
2022/02/19 05:03:15;;;;;;;11.13;3.03;;;3.70;99.90;;;;;;5028204;28;20587;-66
2022/02/19 05:05:43;;;;;;;17.87;3.17;;;3.70;99.90;;;;;;5042065;28;20299;-67
2022/02/19 05:08:12;;;;;;;11.43;2.90;;;3.80;99.90;;;;;;5033447;28;20233;-67
2022/02/19 05:10:40;;;;;;;17.33;2.83;;;3.70;99.90;;;;;;5027689;28;20528;-66
2022/02/19 05:13:10;;;;;;;8.83;2.50;;;3.70;99.90;;;;;;5032768;28;20209;-66
2022/02/19 05:15:38;;;;;;;14.17;3.37;;;3.70;99.90;;;;;;5028971;28;20236;-66
2022/02/19 05:18:08;;;;;;;10.50;2.30;;;3.70;99.90;;;;;;5038139;28;20600;-67
2022/02/19 05:20:38;;;;;;;10.57;2.83;;;3.70;99.90;;;;;;5032562;28;20247;-66
2022/02/19 05:23:06;;;;;;;12.27;2.73;;;3.70;99.90;;;;;;5032742;28;20328;-66
2022/02/19 05:25:35;;;;;;;12.83;2.80;;;3.70;99.90;;;;;;5040885;28;20222;-67
2022/02/19 05:28:03;;;;;;;12.57;2.90;;;3.70;99.90;;;;;;5030830;28;20276;-66
2022/02/19 05:30:33;;;;;;;10.17;2.73;;;3.80;99.90;;;;;;5025135;28;20554;-66
2022/02/19 05:33:02;;;;;;;10.47;2.70;;;3.80;99.90;;;;;;5036987;28;20225;-67
2022/02/19 05:35:30;;;;;;;9.87;2.63;;;3.80;99.90;;;;;;5029524;28;20277;-67
2022/02/19 05:37:58;;;;;;;16.57;2.93;;;3.80;99.90;;;;;;5031513;28;20565;-66
2022/02/19 05:40:27;;;;;;;15.23;2.87;;;3.70;99.90;;;;;;5039017;28;20573;-67
2022/02/19 05:42:56;;;;;;;13.87;2.53;;;3.70;99.90;;;;;;5035975;28;20280;-67
2022/02/19 05:45:24;;;;;;;12.17;2.57;;;3.70;99.90;;;;;;5027930;28;20220;-66
2022/02/19 05:47:53;;;;;;;18.50;2.80;;;3.60;99.90;;;;;;5046134;28;20197;-67
2022/02/19 05:50:22;;;;;;;13.03;2.63;;;3.60;99.90;;;;;;5029972;28;20213;-66
2022/02/19 05:52:50;;;;;;;14.73;3.30;;;3.50;99.90;;;;;;5035684;28;20775;-67
2022/02/19 05:55:19;;;;;;;12.33;2.90;;;3.50;99.90;;;;;;5035135;28;20231;-66
2022/02/19 05:57:47;;;;;;;12.83;3.27;;;3.50;99.90;;;;;;5035186;28;20209;-66
2022/02/19 06:00:16;;;;;;;10.50;2.70;;;3.40;99.90;;;;;;5033700;28;20192;-66
2022/02/19 06:02:44;;;;;;;15.63;2.70;;;3.50;99.90;;;;;;5027982;28;20201;-67
2022/02/19 06:05:14;;;;;;;11.13;2.63;;;3.50;99.90;;;;;;5030487;28;20596;-66
2022/02/19 06:07:42;;;;;;;16.90;3.03;;;3.50;99.90;;;;;;5029553;28;20241;-67
2022/02/19 06:10:11;;;;;;;7.63;2.80;;;3.40;99.90;;;;;;5030899;28;20194;-66
2022/02/19 06:12:39;;;;;;;23.30;3.90;;;3.30;99.90;;;;;;5027227;28;20288;-66
2022/02/19 06:15:10;;;;;;;14.67;2.83;;;3.40;99.90;;;;;;5030732;28;20236;-67
2022/02/19 06:17:38;;;;;;;17.83;3.03;;;3.50;99.90;;;;;;5025090;28;20224;-66
2022/02/19 06:20:08;;;;;;;15.77;3.10;;;3.50;99.90;;;;;;5023745;28;20190;-66
2022/02/19 06:22:37;;;;;;;17.73;3.20;;;3.40;99.90;;;;;;5026302;28;20251;-66
2022/02/19 06:25:07;;;;;;;20.23;3.23;;;3.40;99.90;;;;;;5040899;28;20606;-66
2022/02/19 06:27:39;;;;;;;12.40;3.67;;;3.40;99.90;;;;;;5027994;28;20197;-66
2022/02/19 06:30:09;;;;;;;12.13;3.20;;;3.40;99.90;;;;;;5026629;28;20292;-67
2022/02/19 06:32:38;;;;;;;21.67;3.87;;;3.30;99.90;;;;;;5030869;28;20194;-66
2022/02/19 06:35:07;;;;;;;18.37;2.97;;;3.20;99.90;;;;;;5040210;28;20639;-66
2022/02/19 06:37:41;;;;;;;20.70;3.07;;;3.20;99.90;;;;;;5024903;28;20197;-66
2022/02/19 06:40:11;;;;;;;25.10;3.87;;;3.20;99.90;;;;;;5027524;28;20200;-66
2022/02/19 06:42:40;;;;;;;14.50;3.10;;;3.30;99.90;;;;;;5016073;28;20234;-66
2022/02/19 06:45:09;;;;;;;18.93;3.27;;;3.30;99.90;;;;;;5043644;28;20244;-66
2022/02/19 06:47:39;;;;;;;19.73;3.10;;;3.40;99.90;;;;;;5025563;28;20296;-66
2022/02/19 06:50:10;;;;;;;10.80;3.03;;;3.40;99.90;;;;;;5032778;28;20201;-66
2022/02/19 06:52:40;;;;;;;20.97;3.20;;;3.40;99.90;;;;;;5033071;28;20732;-66
2022/02/19 06:55:09;;;;;;;16.30;3.13;;;3.30;99.90;;;;;;5027955;28;20217;-66
2022/02/19 06:57:39;;;;;;;19.73;3.33;;;3.30;99.90;;;;;;5026576;28;20233;-67
2022/02/19 07:00:10;;;;;;;30.33;4.57;;;3.30;99.90;;;;;;5027901;28;20560;-65
2022/02/19 07:02:39;;;;;;;18.53;3.87;;;3.30;99.90;;;;;;5022659;28;20284;-65
2022/02/19 07:05:09;;;;;;;15.20;3.13;;;3.30;99.90;;;;;;5025280;28;20244;-68
2022/02/19 07:07:37;;;;;;;16.90;4.13;;;3.40;99.90;;;;;;5028926;28;20221;-67
2022/02/19 07:10:09;;;;;;;21.17;3.73;;;3.40;99.90;;;;;;5030393;28;20201;-66
2022/02/19 07:12:38;;;;;;;15.83;3.37;;;3.50;99.90;;;;;;5036588;28;20672;-67
2022/02/19 07:15:09;;;;;;;16.87;3.17;;;3.50;99.90;;;;;;5037650;28;20213;-67
2022/02/19 07:17:48;;;;;;;16.00;3.30;;;3.40;99.90;;;;;;5026681;28;20221;-66
2022/02/19 07:20:17;;;;;;;14.27;3.83;;;3.50;99.90;;;;;;5027949;28;20209;-68
2022/02/19 07:22:45;;;;;;;17.93;3.50;;;3.60;99.90;;;;;;5032948;28;20246;-67
2022/02/19 07:25:15;;;;;;;19.00;3.93;;;3.70;99.90;;;;;;5030270;28;20284;-66
2022/02/19 07:27:47;;;;;;;14.90;3.33;;;3.70;99.90;;;;;;5027542;28;20740;-66
2022/02/19 07:30:22;;;;;;;17.27;3.23;;;3.70;99.90;;;;;;5028462;28;20712;-66
2022/02/19 07:32:52;;;;;;;17.90;4.13;;;3.80;99.90;;;;;;5027339;28;20732;-67
2022/02/19 07:35:21;;;;;;;22.37;3.60;;;3.80;99.90;;;;;;5040649;28;20229;-66
2022/02/19 07:37:49;;;;;;;25.00;4.13;;;3.80;99.90;;;;;;5029232;28;20190;-66
2022/02/19 07:40:19;;;;;;;19.70;3.00;;;4.00;99.90;;;;;;5027716;28;20198;-66
2022/02/19 07:42:48;;;;;;;16.30;3.20;;;4.20;99.90;;;;;;5027495;28;20204;-67
2022/02/19 07:45:16;;;;;;;13.83;3.03;;;4.40;99.90;;;;;;5039215;28;20275;-66
2022/02/19 07:47:45;;;;;;;14.80;4.03;;;4.60;99.90;;;;;;5030923;28;20197;-67
2022/02/19 07:58:34;;;;;;;15.73;3.33;;;5.30;99.90;;;;;;5032755;28;20565;-66
2022/02/19 08:01:05;;;;;;;13.23;2.77;;;5.50;99.90;;;;;;5037836;28;20200;-66
2022/02/19 08:03:34;;;;;;;12.07;2.90;;;5.60;99.90;;;;;;5034535;28;20675;-67
2022/02/19 08:06:04;;;;;;;10.27;3.03;;;5.80;99.90;;;;;;5033619;28;20626;-66
2022/02/19 08:08:33;;;;;;;14.20;3.40;;;5.90;99.90;;;;;;5031163;28;20236;-66
2022/02/19 08:11:03;;;;;;;17.80;3.53;;;6.00;99.90;;;;;;5035822;28;20629;-66
2022/02/19 08:13:32;;;;;;;12.87;3.20;;;6.00;99.90;;;;;;5026182;28;20240;-66
2022/02/19 08:16:00;;;;;;;17.13;3.17;;;6.00;99.90;;;;;;5031016;28;20296;-66
2022/02/19 08:18:28;;;;;;;14.37;3.20;;;6.10;99.90;;;;;;5030351;28;20189;-66
2022/02/19 08:20:57;;;;;;;14.80;3.53;;;6.20;99.90;;;;;;5039734;28;20729;-67
2022/02/19 08:23:25;;;;;;;13.37;3.07;;;6.30;99.90;;;;;;5029250;28;20196;-67
2022/02/19 08:25:56;;;;;;;14.40;3.30;;;6.40;99.90;;;;;;5025228;28;20210;-67
2022/02/19 08:28:26;;;;;;;16.93;3.77;;;6.70;99.90;;;;;;5033809;28;20683;-67
2022/02/19 08:30:54;;;;;;;14.30;3.47;;;6.90;99.90;;;;;;5030891;28;20263;-67
2022/02/19 08:33:22;;;;;;;15.33;3.10;;;7.10;99.90;;;;;;5030899;28;20571;-67
2022/02/19 08:35:51;;;;;;;9.43;2.77;;;7.30;99.90;;;;;;5038465;28;20319;-66
2022/02/19 08:38:19;;;;;;;13.83;2.90;;;7.40;99.90;;;;;;5036105;28;20281;-67
2022/02/19 08:40:48;;;;;;;11.03;3.07;;;7.60;99.90;;;;;;5028967;28;20703;-67
2022/02/19 08:43:16;;;;;;;13.93;2.83;;;7.90;99.90;;;;;;5025808;28;20201;-67
2022/02/19 08:45:46;;;;;;;12.60;3.00;;;8.00;99.90;;;;;;5034252;28;20212;-67
2022/02/19 08:48:14;;;;;;;13.63;3.10;;;8.10;99.90;;;;;;5038682;28;20341;-67
2022/02/19 08:50:43;;;;;;;9.83;2.90;;;8.20;99.90;;;;;;5030729;28;20824;-67
2022/02/19 08:53:12;;;;;;;9.43;3.20;;;8.30;99.90;;;;;;5025662;28;20687;-67
2022/02/19 08:55:41;;;;;;;8.00;2.73;;;8.60;99.90;;;;;;5026536;28;20217;-67
2022/02/19 08:58:12;;;;;;;11.80;3.10;;;8.80;99.90;;;;;;5031360;28;20537;-67
2022/02/19 09:00:40;;;;;;;18.93;3.73;;;9.00;99.90;;;;;;5039011;28;20205;-67
2022/02/19 09:03:10;;;;;;;14.80;3.03;;;8.60;99.90;;;;;;5034132;28;20228;-67
2022/02/19 09:05:39;;;;;;;12.43;3.07;;;8.30;99.90;;;;;;5023333;28;20347;-68
2022/02/19 09:08:08;;;;;;;9.93;3.07;;;8.30;99.90;;;;;;5032967;28;20237;-67
2022/02/19 09:10:37;;;;;;;12.03;2.90;;;8.40;99.90;;;;;;5040788;28;20203;-66
2022/02/19 09:13:05;;;;;;;12.13;2.60;;;8.60;99.90;;;;;;5025057;28;20667;-66
2022/02/19 09:15:37;;;;;;;14.13;2.90;;;8.50;99.90;;;;;;5028559;28;20241;-67
2022/02/19 09:18:07;;;;;;;12.00;2.93;;;8.50;99.90;;;;;;5030444;28;20251;-67
2022/02/19 09:20:37;;;;;;;8.33;2.60;;;8.50;99.90;;;;;;5034801;28;20743;-66
2022/02/19 09:23:05;;;;;;;9.10;2.60;;;8.60;99.90;;;;;;5036196;28;20574;-67
2022/02/19 09:25:34;;;;;;;12.07;2.60;;;8.80;99.90;;;;;;5027426;28;20201;-67
2022/02/19 09:28:02;;;;;;;8.37;2.60;;;9.00;99.90;;;;;;5032192;28;20288;-66
2022/02/19 09:30:31;;;;;;;18.07;3.17;;;9.00;99.90;;;;;;5028691;28;20227;-67
2022/02/19 09:33:01;;;;;;;9.00;3.00;;;8.90;99.90;;;;;;5032185;28;20204;-66
2022/02/19 09:35:30;;;;;;;11.27;2.70;;;8.80;99.90;;;;;;5030171;28;20694;-67
2022/02/19 09:37:59;;;;;;;16.33;2.53;;;9.10;99.90;;;;;;5031683;28;20583;-67
2022/02/19 09:40:28;;;;;;;9.27;2.87;;;9.40;99.90;;;;;;5030229;28;20189;-67
2022/02/19 09:42:56;;;;;;;11.60;2.67;;;9.50;99.90;;;;;;5028223;28;20251;-67
2022/02/19 09:45:29;;;;;;;10.03;2.60;;;9.70;99.90;;;;;;5030792;28;20242;-67
2022/02/19 09:47:58;;;;;;;10.70;2.77;;;9.90;99.90;;;;;;5022409;28;20212;-66
2022/02/19 09:50:28;;;;;;;11.90;3.13;;;10.00;99.90;;;;;;5031700;28;20258;-66
2022/02/19 09:52:56;;;;;;;9.23;2.90;;;10.00;99.90;;;;;;5037506;28;20254;-67
2022/02/19 09:55:27;;;;;;;11.23;3.07;;;10.20;99.90;;;;;;5025017;28;20241;-67
2022/02/19 09:57:55;;;;;;;12.27;3.00;;;10.40;99.90;;;;;;5031260;28;20287;-66
2022/02/19 10:00:29;;;;;;;12.47;2.63;;;10.40;99.90;;;;;;5029097;28;20196;-67
2022/02/19 10:02:57;;;;;;;6.77;2.20;;;10.20;99.90;;;;;;5028025;28;20205;-67
2022/02/19 10:05:31;;;;;;;10.13;2.57;;;10.10;99.90;;;;;;5025612;28;20194;-67
2022/02/19 10:08:04;;;;;;;7.10;2.27;;;10.50;99.90;;;;;;5034611;28;20563;-67
2022/02/19 10:10:48;;;;;;;7.70;2.40;;;10.90;99.90;;;;;;5028844;28;20718;-67
2022/02/19 10:13:31;;;;;;;8.27;2.40;;;11.00;99.90;;;;;;5037450;28;20256;-67
2022/02/19 10:16:00;;;;;;;7.93;2.40;;;11.30;99.90;;;;;;5027986;28;20342;-68
2022/02/19 10:18:29;;;;;;;7.90;2.10;;;11.60;99.90;;;;;;5028996;28;20207;-68
2022/02/19 10:21:15;;;;;;;6.27;2.60;;;11.70;99.90;;;;;;5026569;28;20267;-67
2022/02/19 10:23:45;;;;;;;9.27;2.20;;;11.30;99.90;;;;;;5030826;28;20671;-68
2022/02/19 10:26:17;;;;;;;7.83;2.33;;;11.20;99.90;;;;;;5030208;28;20710;-67
2022/02/19 10:28:59;;;;;;;8.27;2.20;;;11.30;99.90;;;;;;5033803;28;20197;-68
2022/02/19 10:31:28;;;;;;;4.60;2.10;;;11.40;99.90;;;;;;5026263;28;20278;-68
2022/02/19 10:34:07;;;;;;;4.73;2.23;;;11.70;99.90;;;;;;5027921;28;20232;-67
2022/02/19 10:36:43;;;;;;;5.83;2.10;;;12.00;99.90;;;;;;5031430;28;20256;-67
2022/02/19 10:39:12;;;;;;;7.97;2.20;;;12.20;99.90;;;;;;5024905;28;20276;-67
2022/02/19 10:41:43;;;;;;;8.90;2.03;;;12.20;99.90;;;;;;5011512;28;20222;-67
2022/02/19 10:44:22;;;;;;;8.53;2.50;;;12.00;99.90;;;;;;5031773;28;20236;-67
2022/02/19 10:46:52;;;;;;;6.67;2.03;;;12.30;99.90;;;;;;5031862;28;20244;-67
2022/02/19 10:49:20;;;;;;;6.73;2.47;;;12.30;99.90;;;;;;5028049;28;20656;-68
2022/02/19 10:51:49;;;;;;;7.60;2.40;;;12.40;99.90;;;;;;5032808;28;20208;-67
2022/02/19 10:54:21;;;;;;;8.67;2.53;;;12.50;99.90;;;;;;5035281;28;20268;-68
2022/02/19 10:56:51;;;;;;;6.37;2.10;;;12.60;99.90;;;;;;5027074;28;20221;-68
2022/02/19 10:59:31;;;;;;;4.43;2.07;;;12.20;99.90;;;;;;5025739;28;20299;-68
2022/02/19 11:02:00;;;;;;;3.77;2.07;;;12.50;99.90;;;;;;5025078;28;20204;-68
2022/02/19 11:05:08;;;;;;;9.57;2.40;;;12.40;99.90;;;;;;5028100;28;20710;-68
2022/02/19 11:08:02;;;;;;;2.60;2.00;;;12.50;99.90;;;;;;5035439;28;20241;-68
2022/02/19 11:10:33;;;;;;;6.70;2.03;;;12.30;99.90;;;;;;5043626;28;20781;-67
2022/02/19 11:13:04;;;;;;;5.80;2.17;;;12.10;99.90;;;;;;5038994;28;20659;-68
2022/02/19 11:15:32;;;;;;;7.70;2.17;;;12.20;99.90;;;;;;5036861;28;20216;-68
2022/02/19 11:18:01;;;;;;;5.80;1.83;;;12.20;99.90;;;;;;5025185;28;20221;-67
2022/02/19 11:20:29;;;;;;;6.27;2.23;;;12.10;99.90;;;;;;5031625;28;20266;-68
2022/02/19 11:22:57;;;;;;;10.70;2.57;;;11.90;99.90;;;;;;5025130;28;20185;-68
2022/02/19 11:25:27;;;;;;;5.70;2.20;;;11.90;99.90;;;;;;5023109;28;20718;-68
2022/02/19 11:27:59;;;;;;;5.60;1.93;;;12.00;99.90;;;;;;5027184;28;20212;-68
2022/02/19 11:30:33;;;;;;;6.47;2.70;;;12.10;99.90;;;;;;5022804;28;20854;-68
2022/02/19 11:33:02;;;;;;;5.00;2.20;;;12.30;99.90;;;;;;5026203;28;20197;-68
2022/02/19 11:35:36;;;;;;;6.73;2.00;;;12.70;99.90;;;;;;5024402;28;20221;-68
2022/02/19 11:38:22;;;;;;;8.13;2.13;;;12.80;99.90;;;;;;5022820;28;20204;-68
2022/02/19 11:40:53;;;;;;;6.57;2.10;;;12.70;99.90;;;;;;5027195;28;20694;-68
2022/02/19 11:43:39;;;;;;;2.07;1.80;;;12.40;99.90;;;;;;5030430;28;20189;-68
2022/02/19 11:46:34;;;;;;;8.93;2.07;;;12.40;99.90;;;;;;5022702;28;20202;-68
2022/02/19 11:49:21;;;;;;;6.93;2.63;;;12.00;99.90;;;;;;5038685;28;20639;-68
2022/02/19 11:52:15;;;;;;;4.47;2.00;;;11.70;99.90;;;;;;5029811;28;20729;-68
2022/02/19 11:55:31;;;;;;;10.73;2.70;;;11.70;99.90;;;;;;5025330;28;20211;-68
2022/02/19 11:58:05;;;;;;;7.10;2.40;;;12.10;99.90;;;;;;4998503;28;20228;-67
2022/02/19 12:00:47;;;;;;;8.50;2.30;;;12.00;99.90;;;;;;5028651;28;20272;-68
2022/02/19 12:03:22;;;;;;;3.30;2.40;;;12.10;99.90;;;;;;5019798;28;20190;-68
2022/02/19 12:06:13;;;;;;;5.37;2.43;;;12.50;99.90;;;;;;5026265;28;20224;-69
2022/02/19 12:09:03;;;;;;;7.20;2.63;;;12.70;99.90;;;;;;5025792;28;20202;-69
2022/02/19 12:11:32;;;;;;;4.70;2.70;;;12.60;99.90;;;;;;5023087;28;20882;-68
2022/02/19 12:14:01;;;;;;;6.30;2.27;;;12.30;99.90;;;;;;5033951;28;20229;-68
2022/02/19 12:16:47;;;;;;;6.27;2.20;;;11.70;99.90;;;;;;5030010;28;20220;-68
2022/02/19 12:19:17;;;;;;;10.70;2.40;;;11.40;99.90;;;;;;5028910;28;20662;-68
2022/02/19 12:21:47;;;;;;;8.93;2.30;;;11.30;99.90;;;;;;5029780;28;20672;-68
2022/02/19 12:24:19;;;;;;;7.63;2.97;;;11.20;99.90;;;;;;5025135;28;20197;-68
2022/02/19 12:27:11;;;;;;;9.43;2.63;;;11.20;99.90;;;;;;5037995;28;20655;-68
2022/02/19 12:29:41;;;;;;;6.90;2.33;;;11.30;99.90;;;;;;5032640;28;20208;-68
2022/02/19 12:32:11;;;;;;;11.40;2.57;;;11.40;99.90;;;;;;5028318;28;20284;-68
2022/02/19 12:34:48;;;;;;;5.73;2.50;;;11.30;99.90;;;;;;5032124;28;20236;-68
2022/02/19 12:37:16;;;;;;;6.87;2.40;;;11.40;99.90;;;;;;5025501;28;20220;-68
2022/02/19 12:39:47;;;;;;;6.87;2.63;;;11.30;99.90;;;;;;5023232;28;20204;-67
2022/02/19 12:42:17;;;;;;;12.83;2.70;;;11.10;99.90;;;;;;5027406;28;20201;-68
2022/02/19 12:44:48;;;;;;;3.47;2.50;;;10.80;99.90;;;;;;5031068;28;20664;-68
2022/02/19 12:47:17;;;;;;;11.87;3.00;;;10.90;99.90;;;;;;5028672;28;20828;-69
2022/02/19 12:49:46;;;;;;;5.17;2.40;;;10.60;99.90;;;;;;5021830;28;20201;-68
2022/02/19 12:52:15;;;;;;;8.70;2.60;;;10.40;99.90;;;;;;5029710;28;20259;-68
2022/02/19 12:54:46;;;;;;;8.07;2.77;;;9.90;99.90;;;;;;5026599;28;20225;-68
2022/02/19 12:57:16;;;;;;;11.30;2.93;;;9.80;99.90;;;;;;5026376;28;20225;-68
2022/02/19 12:59:45;;;;;;;7.07;2.57;;;9.60;99.90;;;;;;5034239;28;20222;-69
2022/02/19 13:02:18;;;;;;;9.80;2.83;;;9.60;99.90;;;;;;5037909;28;20202;-67
2022/02/19 13:04:49;;;;;;;11.37;3.07;;;9.50;99.90;;;;;;5030109;28;20205;-68
2022/02/19 13:07:21;;;;;;;8.07;2.93;;;9.30;99.90;;;;;;5025936;28;20312;-68
2022/02/19 13:09:50;;;;;;;11.37;2.90;;;9.10;99.90;;;;;;5032761;28;20202;-68
2022/02/19 13:12:26;;;;;;;9.60;2.87;;;9.00;99.90;;;;;;5027080;28;20914;-68
2022/02/19 13:14:56;;;;;;;17.07;3.20;;;9.10;99.90;;;;;;5011006;28;20296;-68
2022/02/19 13:17:27;;;;;;;10.50;2.77;;;9.10;99.90;;;;;;5026910;28;20477;-68